Time;durP1;ratioP1;P1;durP2;ratioP2;P2;SDS_P1;SDS_P2;PMS_P1;PMS_P2;Temp;Humidity;BMP_temperature;BMP_pressure;BME280_temperature;BME280_humidity;BME280_pressure;Samples;Min_cycle;Max_cycle;Signal;HPM_P1;HPM_P2
2020/12/02 00:00:14;;;;;;;21.10;19.02;;;1.50;78.90;;;;;;5153274;28;20057;-73
2020/12/02 00:03:18;;;;;;;20.73;18.73;;;1.50;78.90;;;;;;5154993;28;20034;-74
2020/12/02 00:05:52;;;;;;;20.48;18.58;;;1.50;79.00;;;;;;5153213;28;20035;-75
2020/12/02 00:08:42;;;;;;;20.75;18.67;;;1.50;78.90;;;;;;5137885;28;20579;-73
2020/12/02 00:11:15;;;;;;;20.83;18.83;;;1.50;78.70;;;;;;5150697;28;20039;-72
2020/12/02 00:13:48;;;;;;;19.70;17.80;;;1.50;78.60;;;;;;5151040;28;20723;-73
2020/12/02 00:16:23;;;;;;;21.65;19.63;;;1.50;78.60;;;;;;5153382;28;20097;-73
2020/12/02 00:18:56;;;;;;;20.27;18.27;;;1.50;78.70;;;;;;5136923;28;20046;-73
2020/12/02 00:21:31;;;;;;;20.80;18.48;;;1.50;78.70;;;;;;5153360;28;20042;-73
2020/12/02 00:24:03;;;;;;;20.20;18.25;;;1.50;78.50;;;;;;5152306;28;20050;-73
2020/12/02 00:26:34;;;;;;;20.13;18.15;;;1.50;78.50;;;;;;5132901;28;20062;-73
2020/12/02 00:29:05;;;;;;;20.30;18.33;;;1.50;78.70;;;;;;5152771;28;20046;-73
2020/12/02 00:31:37;;;;;;;20.17;18.23;;;1.50;78.80;;;;;;5112440;28;20124;-73
2020/12/02 00:34:08;;;;;;;20.48;18.50;;;1.40;78.70;;;;;;5135532;28;20324;-73
2020/12/02 00:36:40;;;;;;;20.42;18.42;;;1.40;78.70;;;;;;5134682;28;20967;-72
2020/12/02 00:39:15;;;;;;;20.80;18.85;;;1.40;78.70;;;;;;5152800;28;20489;-73
2020/12/02 00:41:48;;;;;;;20.08;18.17;;;1.40;78.70;;;;;;5152768;28;20096;-72
2020/12/02 00:44:19;;;;;;;20.70;18.70;;;1.40;78.60;;;;;;5137209;28;20077;-74
2020/12/02 00:46:51;;;;;;;20.60;18.60;;;1.50;78.60;;;;;;5152253;28;20054;-73
2020/12/02 00:49:23;;;;;;;20.23;18.33;;;1.50;78.40;;;;;;5153115;28;21239;-73
2020/12/02 00:51:56;;;;;;;19.50;17.67;;;1.50;78.30;;;;;;5123340;28;20043;-74
2020/12/02 00:54:28;;;;;;;19.95;18.05;;;1.50;78.10;;;;;;5153807;28;20106;-73
2020/12/02 00:57:00;;;;;;;19.70;17.83;;;1.50;78.10;;;;;;5142079;28;20516;-73
2020/12/02 00:59:32;;;;;;;19.95;18.05;;;1.50;78.10;;;;;;5152405;28;20072;-73
2020/12/02 01:02:32;;;;;;;20.08;18.17;;;1.50;78.10;;;;;;5153045;28;20049;-74
2020/12/02 01:05:11;;;;;;;19.70;17.70;;;1.50;77.80;;;;;;5155696;28;20183;-73
2020/12/02 01:07:44;;;;;;;19.65;17.75;;;1.50;77.80;;;;;;5153304;28;20946;-73
2020/12/02 01:10:16;;;;;;;20.10;18.20;;;1.50;78.20;;;;;;5154155;28;20399;-74
2020/12/02 01:12:48;;;;;;;19.58;17.67;;;1.50;78.70;;;;;;5135516;28;20042;-74
2020/12/02 01:15:21;;;;;;;20.00;18.10;;;1.40;77.90;;;;;;5153286;28;20038;-73
2020/12/02 01:18:18;;;;;;;19.73;17.88;;;1.40;78.00;;;;;;5155323;28;20108;-74
2020/12/02 01:20:59;;;;;;;19.90;18.00;;;1.50;77.90;;;;;;5150139;28;20069;-74
2020/12/02 01:23:33;;;;;;;19.90;18.00;;;1.50;77.80;;;;;;5152805;28;20073;-74
2020/12/02 01:26:05;;;;;;;20.85;18.85;;;1.50;77.70;;;;;;5153815;28;20050;-74
2020/12/02 01:28:37;;;;;;;19.98;17.98;;;1.50;77.60;;;;;;5129382;28;20116;-74
2020/12/02 01:31:09;;;;;;;19.23;17.42;;;1.50;77.50;;;;;;5153571;28;20619;-75
2020/12/02 01:33:40;;;;;;;20.08;18.08;;;1.50;77.80;;;;;;5132072;28;20100;-74
2020/12/02 01:36:12;;;;;;;19.85;17.95;;;1.40;77.70;;;;;;5150914;28;20122;-75
2020/12/02 01:38:43;;;;;;;20.38;18.48;;;1.50;77.70;;;;;;5139575;28;20578;-74
2020/12/02 01:41:15;;;;;;;19.65;17.75;;;1.50;77.60;;;;;;5136147;28;20173;-74
2020/12/02 01:43:50;;;;;;;20.27;18.27;;;1.50;77.60;;;;;;5134446;28;20046;-75
2020/12/02 01:46:37;;;;;;;20.45;18.45;;;1.50;77.60;;;;;;5151572;28;20054;-74
2020/12/02 01:49:24;;;;;;;19.20;17.30;;;1.50;77.40;;;;;;5129522;28;20049;-75
2020/12/02 01:52:20;;;;;;;20.13;18.23;;;1.40;77.50;;;;;;5152098;28;20053;-74
2020/12/02 01:54:57;;;;;;;20.48;18.42;;;1.50;77.60;;;;;;5153765;28;20047;-75
2020/12/02 01:57:35;;;;;;;20.63;18.63;;;1.50;77.60;;;;;;5150855;28;20114;-74
2020/12/02 02:00:13;;;;;;;19.70;17.70;;;1.50;77.40;;;;;;5143927;28;20097;-73
2020/12/02 02:03:04;;;;;;;20.05;18.13;;;1.50;77.40;;;;;;5151082;28;20125;-75
2020/12/02 02:05:58;;;;;;;19.70;17.80;;;1.40;77.40;;;;;;5152334;28;20051;-74
2020/12/02 02:08:33;;;;;;;20.02;18.10;;;1.40;77.70;;;;;;5150878;28;20042;-74
2020/12/02 02:11:07;;;;;;;19.50;17.60;;;1.50;77.60;;;;;;5135244;28;20077;-75
2020/12/02 02:14:26;;;;;;;20.35;18.35;;;1.40;77.50;;;;;;5151831;28;20074;-75
2020/12/02 02:16:59;;;;;;;20.20;18.13;;;1.50;77.30;;;;;;5151040;28;20030;-74
2020/12/02 02:19:31;;;;;;;20.45;18.45;;;1.50;77.50;;;;;;5135004;28;20054;-75
2020/12/02 02:22:02;;;;;;;19.17;17.27;;;1.50;77.40;;;;;;5152218;28;20042;-75
2020/12/02 02:24:34;;;;;;;20.17;18.17;;;1.40;77.30;;;;;;5152476;28;20050;-74
2020/12/02 02:27:05;;;;;;;19.98;18.08;;;1.50;77.20;;;;;;5148223;28;20043;-75
2020/12/02 02:29:40;;;;;;;19.02;17.17;;;1.40;77.50;;;;;;5132508;28;20102;-75
2020/12/02 02:32:14;;;;;;;19.48;17.63;;;1.40;77.40;;;;;;5151874;28;20039;-74
2020/12/02 02:34:50;;;;;;;20.42;18.38;;;1.30;77.50;;;;;;5139739;28;20038;-74
2020/12/02 02:37:24;;;;;;;20.15;18.15;;;1.30;77.70;;;;;;5151285;28;20410;-75
2020/12/02 02:39:56;;;;;;;20.50;18.52;;;1.30;77.70;;;;;;5151456;28;20105;-74
2020/12/02 02:42:36;;;;;;;19.75;17.85;;;1.30;77.70;;;;;;5131908;28;20093;-75
2020/12/02 02:45:14;;;;;;;19.73;17.80;;;1.30;77.40;;;;;;5140084;28;20089;-74
2020/12/02 02:47:46;;;;;;;19.63;17.70;;;1.40;77.40;;;;;;5151053;28;20054;-74
2020/12/02 02:50:20;;;;;;;19.50;17.60;;;1.40;77.40;;;;;;5150846;28;20043;-74
2020/12/02 02:52:53;;;;;;;20.20;18.30;;;1.40;77.20;;;;;;5151465;28;20105;-74
2020/12/02 02:55:26;;;;;;;19.90;18.00;;;1.40;77.10;;;;;;5151981;28;20046;-73
2020/12/02 02:58:00;;;;;;;19.80;17.90;;;1.40;77.10;;;;;;5157339;28;20500;-74
2020/12/02 03:00:33;;;;;;;19.80;17.83;;;1.30;77.00;;;;;;5139417;28;20066;-74
2020/12/02 03:03:07;;;;;;;19.27;17.35;;;1.30;77.20;;;;;;5139236;28;20066;-74
2020/12/02 03:05:39;;;;;;;19.17;17.27;;;1.30;77.40;;;;;;5154351;28;20062;-74
2020/12/02 03:08:11;;;;;;;19.40;17.42;;;1.30;77.20;;;;;;5138751;28;20116;-74
2020/12/02 03:10:46;;;;;;;19.40;17.60;;;1.20;77.20;;;;;;5137091;28;20581;-73
2020/12/02 03:13:36;;;;;;;19.83;17.92;;;1.20;78.20;;;;;;5141717;28;20413;-74
2020/12/02 03:16:13;;;;;;;19.27;17.48;;;1.20;77.50;;;;;;5154996;28;20412;-74
2020/12/02 03:18:47;;;;;;;19.10;17.30;;;1.30;77.30;;;;;;5137040;28;20073;-73
2020/12/02 03:21:21;;;;;;;19.00;17.27;;;1.20;77.40;;;;;;5141453;28;20482;-75
2020/12/02 03:23:54;;;;;;;19.92;17.92;;;1.20;77.10;;;;;;5155095;28;20054;-74
2020/12/02 03:26:26;;;;;;;19.17;17.38;;;1.20;77.40;;;;;;5124469;28;20046;-74
2020/12/02 03:28:57;;;;;;;19.00;17.20;;;1.20;77.40;;;;;;5156360;28;20066;-74
2020/12/02 03:31:29;;;;;;;18.60;16.90;;;1.20;77.20;;;;;;5139083;28;20075;-74
2020/12/02 03:34:01;;;;;;;18.58;16.88;;;1.30;77.20;;;;;;5153153;28;20144;-75
2020/12/02 03:36:32;;;;;;;18.35;16.65;;;1.30;76.90;;;;;;5153054;28;20090;-74
2020/12/02 03:39:06;;;;;;;17.80;16.10;;;1.20;76.70;;;;;;5131123;28;20406;-74
2020/12/02 03:41:39;;;;;;;18.52;16.83;;;1.20;76.70;;;;;;5152263;28;20038;-74
2020/12/02 03:44:11;;;;;;;17.83;16.23;;;1.20;76.80;;;;;;5154428;28;20782;-73
2020/12/02 03:46:43;;;;;;;18.42;16.67;;;1.20;76.50;;;;;;5152386;28;20035;-74
2020/12/02 03:49:15;;;;;;;18.42;16.80;;;1.30;76.70;;;;;;5155045;28;20038;-73
2020/12/02 03:51:46;;;;;;;16.98;15.48;;;1.30;76.70;;;;;;5154102;28;20050;-74
2020/12/02 03:54:18;;;;;;;18.33;16.63;;;1.30;76.70;;;;;;5144221;28;20085;-74
2020/12/02 03:56:49;;;;;;;17.83;16.23;;;1.30;76.60;;;;;;5152315;28;20050;-74
2020/12/02 03:59:21;;;;;;;18.42;16.77;;;1.30;76.60;;;;;;5124248;28;20124;-74
2020/12/02 04:01:52;;;;;;;17.77;16.20;;;1.20;76.70;;;;;;5120160;28;20046;-74
2020/12/02 04:04:24;;;;;;;16.98;15.48;;;1.20;76.60;;;;;;5154886;28;20104;-74
2020/12/02 04:06:55;;;;;;;18.52;16.75;;;1.20;76.70;;;;;;5119180;28;20058;-74
2020/12/02 04:09:27;;;;;;;17.92;16.23;;;1.20;76.90;;;;;;5154313;28;20097;-74
2020/12/02 04:11:58;;;;;;;18.50;16.80;;;1.20;76.80;;;;;;5153342;28;20126;-74
2020/12/02 04:14:30;;;;;;;18.60;16.90;;;1.30;76.70;;;;;;5138950;28;20467;-74
2020/12/02 04:17:01;;;;;;;18.00;16.30;;;1.30;76.50;;;;;;5153861;28;20039;-74
2020/12/02 04:19:33;;;;;;;18.02;16.38;;;1.20;76.10;;;;;;5109928;28;20054;-73
2020/12/02 04:22:04;;;;;;;17.50;15.90;;;1.20;76.70;;;;;;5135637;28;20042;-73
2020/12/02 04:24:36;;;;;;;17.67;16.08;;;1.20;76.50;;;;;;5152657;28;20038;-73
2020/12/02 04:27:07;;;;;;;16.83;15.32;;;1.20;76.30;;;;;;5151394;28;20046;-74
2020/12/02 04:29:39;;;;;;;17.52;15.93;;;1.20;76.30;;;;;;5151151;28;20050;-75
2020/12/02 04:32:10;;;;;;;16.80;15.30;;;1.20;75.90;;;;;;5151216;28;20563;-75
2020/12/02 04:34:42;;;;;;;17.65;16.05;;;1.20;76.00;;;;;;5152229;28;21555;-75
2020/12/02 04:37:13;;;;;;;17.50;15.90;;;1.20;75.80;;;;;;5154152;28;20053;-74
2020/12/02 04:39:45;;;;;;;17.05;15.52;;;1.30;75.60;;;;;;5110245;28;20790;-74
2020/12/02 04:42:16;;;;;;;17.08;15.57;;;1.20;75.60;;;;;;5151896;28;20039;-75
2020/12/02 04:44:49;;;;;;;18.27;16.63;;;1.20;75.60;;;;;;5151031;28;20459;-74
2020/12/02 04:47:31;;;;;;;17.83;16.23;;;1.20;75.80;;;;;;5152645;28;20049;-75
2020/12/02 04:50:13;;;;;;;17.40;15.80;;;1.20;75.90;;;;;;5154702;28;20065;-75
2020/12/02 04:53:07;;;;;;;16.65;15.15;;;1.20;75.80;;;;;;5134500;28;20046;-74
2020/12/02 04:55:44;;;;;;;17.77;16.15;;;1.20;75.90;;;;;;5152971;28;20077;-75
2020/12/02 04:58:37;;;;;;;16.77;15.18;;;1.20;75.90;;;;;;5154184;28;20042;-76
2020/12/02 05:01:33;;;;;;;16.80;15.30;;;1.20;75.90;;;;;;5151557;28;20046;-75
2020/12/02 05:04:06;;;;;;;17.83;16.25;;;1.20;75.90;;;;;;5144111;28;20121;-75
2020/12/02 05:06:43;;;;;;;16.52;15.00;;;1.20;75.90;;;;;;5153132;28;20054;-73
2020/12/02 05:09:23;;;;;;;16.13;14.63;;;1.20;75.80;;;;;;5153406;28;20394;-74
2020/12/02 05:12:14;;;;;;;16.05;14.55;;;1.20;75.70;;;;;;5152443;28;20113;-74
2020/12/02 05:14:46;;;;;;;16.65;15.10;;;1.20;75.60;;;;;;5153669;28;20049;-74
2020/12/02 05:17:26;;;;;;;16.35;14.75;;;1.20;75.80;;;;;;5138884;28;20054;-74
2020/12/02 05:20:21;;;;;;;16.13;14.63;;;1.20;75.10;;;;;;5152569;28;20117;-74
2020/12/02 05:22:53;;;;;;;16.52;15.02;;;1.20;75.40;;;;;;5140567;28;20057;-74
2020/12/02 05:25:31;;;;;;;15.55;14.15;;;1.20;74.80;;;;;;5152608;28;20097;-75
2020/12/02 05:28:30;;;;;;;15.82;14.32;;;1.20;74.80;;;;;;5151833;28;20547;-75
2020/12/02 05:31:06;;;;;;;16.40;14.80;;;1.20;75.30;;;;;;5151538;28;20039;-75
2020/12/02 05:33:38;;;;;;;16.10;14.60;;;1.30;75.20;;;;;;5135783;28;20042;-75
2020/12/02 05:36:28;;;;;;;15.75;14.30;;;1.20;74.90;;;;;;5152332;28;20062;-75
2020/12/02 05:39:10;;;;;;;15.95;14.45;;;1.20;75.10;;;;;;5151655;28;20046;-75
2020/12/02 05:41:43;;;;;;;15.77;14.27;;;1.20;75.00;;;;;;5150969;28;20539;-75
2020/12/02 05:44:36;;;;;;;15.38;13.98;;;1.20;74.80;;;;;;5151436;28;20045;-75
2020/12/02 05:47:17;;;;;;;15.93;14.43;;;1.20;74.80;;;;;;5126214;28;20563;-75
2020/12/02 05:49:57;;;;;;;15.23;13.80;;;1.20;74.50;;;;;;5151950;28;20496;-75
2020/12/02 05:52:31;;;;;;;;;;;1.20;74.70;;;;;;5151165;28;20077;-74
2020/12/02 05:55:08;;;;;;;14.52;13.13;;;1.20;74.60;;;;;;5149279;28;19929;-74
2020/12/02 05:57:58;;;;;;;15.20;13.80;;;1.20;74.50;;;;;;5149600;28;20082;-75
2020/12/02 06:00:32;;;;;;;15.60;14.10;;;1.20;74.50;;;;;;5125228;28;20051;-75
2020/12/02 06:03:05;;;;;;;15.65;13.85;;;1.20;74.50;;;;;;5132566;28;20120;-75
2020/12/02 06:05:37;;;;;;;14.73;13.32;;;1.20;74.10;;;;;;5150897;28;20766;-75
2020/12/02 06:08:10;;;;;;;15.32;13.73;;;1.10;74.10;;;;;;5150634;28;20043;-75
2020/12/02 06:10:41;;;;;;;14.93;13.52;;;1.10;73.90;;;;;;5121778;28;20050;-75
2020/12/02 06:13:39;;;;;;;14.68;13.27;;;1.10;74.10;;;;;;5151219;28;20054;-75
2020/12/02 06:16:12;;;;;;;15.30;13.80;;;1.00;73.80;;;;;;5135989;28;20085;-76
2020/12/02 06:18:44;;;;;;;15.55;14.00;;;1.00;74.10;;;;;;5140260;28;20054;-76
2020/12/02 06:21:39;;;;;;;15.52;13.93;;;1.10;74.10;;;;;;5149001;28;20053;-74
2020/12/02 06:24:25;;;;;;;14.88;13.48;;;1.00;73.50;;;;;;5149680;28;20038;-75
2020/12/02 06:26:57;;;;;;;15.15;13.65;;;1.00;73.60;;;;;;5123396;28;20042;-75
2020/12/02 06:29:37;;;;;;;15.38;13.30;;;1.00;73.40;;;;;;5151438;28;20811;-78
2020/12/02 06:32:16;;;;;;;15.50;14.00;;;1.00;73.70;;;;;;5152926;28;20137;-79
2020/12/02 06:34:50;;;;;;;15.55;13.95;;;1.00;73.70;;;;;;5121578;28;20459;-78
2020/12/02 06:37:24;;;;;;;14.82;13.32;;;1.00;73.90;;;;;;5135285;28;20062;-77
2020/12/02 06:39:59;;;;;;;15.10;13.60;;;1.00;73.80;;;;;;5155082;28;20042;-79
2020/12/02 06:42:43;;;;;;;15.43;13.82;;;1.10;73.80;;;;;;5154665;28;20502;-78
2020/12/02 06:45:23;;;;;;;14.88;13.38;;;1.00;73.70;;;;;;5144353;28;20065;-78
2020/12/02 06:48:02;;;;;;;14.30;12.90;;;1.00;73.70;;;;;;5155263;28;20038;-79
2020/12/02 06:50:35;;;;;;;15.73;14.02;;;1.00;73.60;;;;;;5125228;28;20452;-79
2020/12/02 06:53:08;;;;;;;15.50;13.90;;;1.00;73.70;;;;;;5122218;28;20516;-79
2020/12/02 06:55:40;;;;;;;15.55;13.98;;;1.00;73.40;;;;;;5154693;28;20106;-79
2020/12/02 06:58:18;;;;;;;15.68;13.95;;;1.00;73.60;;;;;;5139193;28;20062;-79
2020/12/02 07:00:52;;;;;;;16.17;14.10;;;1.00;73.60;;;;;;5152596;28;20591;-79
2020/12/02 07:03:38;;;;;;;15.43;13.15;;;1.00;73.60;;;;;;5138715;28;20092;-79
2020/12/02 07:06:18;;;;;;;15.98;13.48;;;1.00;73.60;;;;;;5155345;28;20532;-79
2020/12/02 07:09:10;;;;;;;15.00;13.40;;;1.00;73.70;;;;;;5154718;28;20038;-78
2020/12/02 07:11:52;;;;;;;15.55;13.07;;;1.00;73.90;;;;;;5153399;28;20642;-77
2020/12/02 07:14:46;;;;;;;15.20;13.50;;;1.00;73.80;;;;;;5122121;28;20104;-78
2020/12/02 07:17:22;;;;;;;14.95;13.43;;;1.00;73.60;;;;;;5155637;28;20042;-78
2020/12/02 07:19:54;;;;;;;14.80;13.30;;;1.00;73.90;;;;;;5157887;28;20389;-78
2020/12/02 07:22:31;;;;;;;15.50;13.90;;;1.00;74.10;;;;;;5139325;28;20034;-78
2020/12/02 07:25:07;;;;;;;14.70;13.20;;;0.90;73.90;;;;;;5156428;28;20162;-76
2020/12/02 07:27:45;;;;;;;15.73;13.70;;;1.00;73.80;;;;;;5123540;28;20057;-78
2020/12/02 07:30:31;;;;;;;14.55;13.05;;;1.00;73.90;;;;;;5156230;28;20742;-77
2020/12/02 07:33:29;;;;;;;16.33;14.10;;;1.00;73.70;;;;;;5156837;28;20038;-78
2020/12/02 07:36:11;;;;;;;14.95;13.38;;;1.00;73.70;;;;;;5139287;28;20137;-78
2020/12/02 07:38:44;;;;;;;14.65;12.55;;;1.00;73.50;;;;;;5137845;28;20042;-78
2020/12/02 07:41:20;;;;;;;17.08;13.55;;;1.00;73.60;;;;;;5152653;28;20046;-77
2020/12/02 07:43:52;;;;;;;15.73;12.90;;;0.90;73.50;;;;;;5112298;28;20050;-78
2020/12/02 07:46:23;;;;;;;15.48;12.63;;;0.90;73.60;;;;;;5153960;28;20038;-80
2020/12/02 07:48:59;;;;;;;14.73;13.10;;;0.90;73.70;;;;;;5154205;28;20093;-78
2020/12/02 07:51:42;;;;;;;15.10;13.23;;;0.90;73.80;;;;;;5123536;28;20137;-77
2020/12/02 07:54:24;;;;;;;14.88;13.23;;;0.90;73.90;;;;;;5135071;28;20046;-79
2020/12/02 07:56:57;;;;;;;15.55;13.75;;;0.90;73.90;;;;;;5153138;28;20693;-79
2020/12/02 07:59:32;;;;;;;16.95;13.93;;;0.90;74.00;;;;;;5156675;28;20112;-78
2020/12/02 08:02:14;;;;;;;16.73;14.15;;;1.00;73.80;;;;;;5154159;28;20046;-78
2020/12/02 08:04:48;;;;;;;15.73;13.32;;;0.90;73.50;;;;;;5139258;28;20046;-78
2020/12/02 08:07:22;;;;;;;15.15;12.80;;;0.90;73.80;;;;;;5153860;28;20190;-78
2020/12/02 08:09:59;;;;;;;16.63;14.07;;;0.90;73.70;;;;;;5154397;28;20443;-78
2020/12/02 08:12:32;;;;;;;17.15;14.63;;;0.90;73.90;;;;;;5153643;28;20100;-78
2020/12/02 08:15:11;;;;;;;18.60;13.93;;;1.00;73.70;;;;;;5154083;28;20042;-77
2020/12/02 08:18:00;;;;;;;16.73;14.15;;;1.00;73.60;;;;;;5152802;28;20051;-78
2020/12/02 08:20:34;;;;;;;17.83;15.15;;;1.00;73.90;;;;;;5151740;28;20455;-78
2020/12/02 08:23:31;;;;;;;18.83;15.80;;;1.00;73.80;;;;;;5155951;28;20045;-78
2020/12/02 08:26:20;;;;;;;16.10;13.38;;;1.10;73.80;;;;;;5143903;28;20046;-78
2020/12/02 08:28:52;;;;;;;17.75;13.77;;;1.10;73.60;;;;;;5154866;28;20667;-78
2020/12/02 08:31:28;;;;;;;17.25;13.77;;;1.10;73.70;;;;;;5153602;28;20093;-79
2020/12/02 08:34:09;;;;;;;17.75;14.65;;;1.10;73.60;;;;;;5145467;28;20046;-78
2020/12/02 08:37:11;;;;;;;17.27;14.23;;;1.10;73.50;;;;;;5141361;28;20463;-79
2020/12/02 08:39:45;;;;;;;17.13;14.07;;;1.10;73.50;;;;;;5154040;28;20077;-78
2020/12/02 08:42:27;;;;;;;16.98;13.68;;;1.10;73.50;;;;;;5152817;28;20042;-78
2020/12/02 08:45:05;;;;;;;16.80;14.07;;;1.00;73.40;;;;;;5153539;28;20047;-78
2020/12/02 08:47:36;;;;;;;19.00;15.43;;;1.00;73.50;;;;;;5153183;28;20432;-78
2020/12/02 08:50:24;;;;;;;17.70;14.73;;;1.00;73.80;;;;;;5097377;28;20596;-79
2020/12/02 08:52:58;;;;;;;18.95;15.20;;;1.00;73.50;;;;;;5143134;28;20054;-78
2020/12/02 08:55:30;;;;;;;17.58;14.93;;;1.10;73.60;;;;;;5135560;28;20751;-78
2020/12/02 08:58:01;;;;;;;17.83;14.57;;;1.00;73.40;;;;;;5152861;28;20042;-79
2020/12/02 09:00:33;;;;;;;18.27;14.95;;;1.00;73.40;;;;;;5152821;28;20046;-78
2020/12/02 09:03:04;;;;;;;18.30;14.65;;;1.00;73.70;;;;;;5151943;28;20697;-78
2020/12/02 09:05:36;;;;;;;19.88;15.32;;;1.10;73.60;;;;;;5150542;28;20078;-76
2020/12/02 09:08:08;;;;;;;19.75;15.80;;;1.10;72.90;;;;;;5154331;28;20114;-78
2020/12/02 09:10:39;;;;;;;17.73;15.35;;;1.10;73.30;;;;;;5136607;28;20104;-78
2020/12/02 09:13:13;;;;;;;18.70;15.30;;;1.10;73.30;;;;;;5144413;28;20050;-79
2020/12/02 09:15:46;;;;;;;19.42;15.73;;;1.10;74.00;;;;;;5152429;28;20060;-79
2020/12/02 09:18:17;;;;;;;18.40;14.88;;;1.10;72.90;;;;;;5153407;28;20050;-79
2020/12/02 09:20:49;;;;;;;20.65;16.27;;;1.10;73.20;;;;;;5153086;28;20097;-78
2020/12/02 09:23:20;;;;;;;21.25;16.27;;;1.20;73.20;;;;;;5137014;28;20110;-77
2020/12/02 09:25:52;;;;;;;18.90;15.10;;;1.30;73.20;;;;;;5136868;28;20412;-78
2020/12/02 09:28:24;;;;;;;20.40;16.77;;;1.30;73.10;;;;;;5152808;28;20062;-79
2020/12/02 09:30:55;;;;;;;20.70;16.05;;;1.30;72.90;;;;;;5151640;28;20035;-78
2020/12/02 09:33:26;;;;;;;20.42;15.55;;;1.30;72.70;;;;;;5134902;28;20436;-78
2020/12/02 09:35:58;;;;;;;19.98;15.45;;;1.30;72.90;;;;;;5133943;28;20039;-78
2020/12/02 09:38:29;;;;;;;20.65;15.88;;;1.30;72.60;;;;;;5136932;28;20456;-78
2020/12/02 09:41:33;;;;;;;21.30;16.92;;;1.30;72.70;;;;;;5134731;28;20034;-78
2020/12/02 09:44:35;;;;;;;22.45;16.65;;;1.30;72.60;;;;;;5154604;28;20441;-78
2020/12/02 09:47:09;;;;;;;20.75;15.85;;;1.30;72.60;;;;;;5153155;28;20377;-78
2020/12/02 09:49:43;;;;;;;22.65;17.05;;;1.20;72.50;;;;;;5135982;28;20050;-78
2020/12/02 09:52:35;;;;;;;24.25;17.85;;;1.20;72.40;;;;;;5151551;28;20062;-79
2020/12/02 09:55:12;;;;;;;23.15;17.05;;;1.20;72.70;;;;;;5139763;28;20093;-78
2020/12/02 09:57:44;;;;;;;24.45;17.58;;;1.20;72.70;;;;;;5133679;28;20137;-78
2020/12/02 10:00:17;;;;;;;25.80;17.00;;;1.30;73.00;;;;;;5151302;28;20464;-78
2020/12/02 10:03:20;;;;;;;23.63;18.58;;;1.30;72.90;;;;;;5150981;28;20053;-78
2020/12/02 10:06:16;;;;;;;21.42;16.27;;;1.40;72.80;;;;;;5142737;28;20113;-78
2020/12/02 10:09:13;;;;;;;25.33;17.23;;;1.50;72.70;;;;;;5118226;28;20042;-78
2020/12/02 10:11:57;;;;;;;24.48;17.85;;;1.50;72.30;;;;;;5141278;28;20631;-78
2020/12/02 10:15:02;;;;;;;27.45;18.08;;;1.50;72.80;;;;;;5124303;28;20062;-78
2020/12/02 10:17:39;;;;;;;24.92;17.58;;;1.50;71.80;;;;;;5149942;28;20054;-77
2020/12/02 10:20:29;;;;;;;25.38;17.73;;;1.50;71.80;;;;;;5150461;28;20057;-76
2020/12/02 10:23:48;;;;;;;23.93;18.67;;;1.50;71.80;;;;;;5147485;28;20039;-79
2020/12/02 10:26:32;;;;;;;24.53;17.97;;;1.60;71.70;;;;;;5134901;28;20786;-76
2020/12/02 10:29:22;;;;;;;22.33;17.58;;;1.60;71.50;;;;;;5130798;28;20051;-76
2020/12/02 10:32:05;;;;;;;;;;;1.60;71.60;;;;;;5150646;28;20075;-76
2020/12/02 10:34:41;;;;;;;24.90;18.13;;;1.60;71.80;;;;;;5149554;28;19922;-76
2020/12/02 10:37:35;;;;;;;24.70;17.77;;;1.60;71.70;;;;;;5132841;28;20491;-77
2020/12/02 10:40:10;;;;;;;26.27;19.77;;;1.60;71.40;;;;;;5124382;28;20046;-76
2020/12/02 10:43:12;;;;;;;27.55;18.55;;;1.60;71.30;;;;;;5153433;28;20042;-78
2020/12/02 10:45:50;;;;;;;27.23;19.88;;;1.60;71.60;;;;;;5151541;28;20039;-76
2020/12/02 10:48:40;;;;;;;26.67;18.50;;;1.60;71.30;;;;;;5151585;28;20046;-77
2020/12/02 10:51:13;;;;;;;25.85;17.88;;;1.50;71.20;;;;;;5136441;28;20051;-77
2020/12/02 10:53:50;;;;;;;29.38;19.48;;;1.50;71.70;;;;;;5151038;28;20047;-76
2020/12/02 10:56:23;;;;;;;28.92;20.35;;;1.40;71.90;;;;;;5149501;28;20811;-78
2020/12/02 10:58:57;;;;;;;27.92;20.27;;;1.40;71.90;;;;;;5116608;28;20043;-76
2020/12/02 11:01:28;;;;;;;28.52;19.67;;;1.40;72.20;;;;;;5149310;28;20046;-76
2020/12/02 11:04:00;;;;;;;29.73;20.92;;;1.30;72.50;;;;;;5150240;28;20051;-80
2020/12/02 11:06:55;;;;;;;30.33;20.75;;;1.30;72.80;;;;;;5149093;28;20055;-75
2020/12/02 11:09:45;;;;;;;27.77;19.83;;;1.30;72.80;;;;;;5124645;28;20666;-76
2020/12/02 11:12:35;;;;;;;;;;;1.30;73.00;;;;;;5150816;28;20046;-75
2020/12/02 11:15:27;;;;;;;31.67;20.35;;;1.30;72.90;;;;;;5140324;28;19933;-76
2020/12/02 11:18:09;;;;;;;31.20;21.33;;;1.20;72.70;;;;;;5148766;28;20053;-76
2020/12/02 11:20:59;;;;;;;30.30;19.80;;;1.20;72.80;;;;;;5152860;28;20054;-76
2020/12/02 11:24:02;;;;;;;31.63;20.73;;;1.20;72.90;;;;;;5134473;28;20046;-77
2020/12/02 11:26:37;;;;;;;27.60;19.15;;;1.20;73.10;;;;;;5153861;28;20043;-76
2020/12/02 11:29:12;;;;;;;31.27;20.50;;;1.10;73.30;;;;;;5155143;28;20044;-78
2020/12/02 11:32:11;;;;;;;30.70;20.77;;;1.10;73.30;;;;;;5152540;28;20057;-78
2020/12/02 11:35:22;;;;;;;29.88;19.58;;;1.00;73.30;;;;;;5154165;28;20057;-78
2020/12/02 11:38:27;;;;;;;30.17;19.90;;;1.00;73.20;;;;;;5154610;28;20050;-78
2020/12/02 11:41:13;;;;;;;32.70;20.65;;;0.90;73.30;;;;;;5103145;28;20049;-77
2020/12/02 11:43:54;;;;;;;32.30;19.95;;;0.80;73.50;;;;;;5135508;28;20168;-77
2020/12/02 11:46:31;;;;;;;28.27;18.75;;;0.80;73.70;;;;;;5149556;28;20080;-79
2020/12/02 11:49:13;;;;;;;30.13;20.15;;;0.70;74.10;;;;;;5136681;28;20042;-78
2020/12/02 11:52:02;;;;;;;27.13;19.30;;;0.70;74.20;;;;;;5153278;28;20140;-79
2020/12/02 11:54:34;;;;;;;27.95;19.40;;;0.70;73.90;;;;;;5153510;28;20537;-78
2020/12/02 11:57:07;;;;;;;30.88;19.38;;;0.70;73.90;;;;;;5153304;28;20047;-78
2020/12/02 11:59:39;;;;;;;30.10;20.05;;;0.70;73.90;;;;;;5135386;28;20046;-80
2020/12/02 12:02:52;;;;;;;31.05;19.73;;;0.70;73.90;;;;;;5116422;28;20112;-79
2020/12/02 12:05:32;;;;;;;28.40;19.90;;;0.60;73.80;;;;;;5155935;28;20038;-79
2020/12/02 12:08:36;;;;;;;30.45;20.75;;;0.60;74.00;;;;;;5135689;28;20108;-78
2020/12/02 12:11:33;;;;;;;27.98;19.08;;;0.60;73.90;;;;;;5153317;28;20053;-79
2020/12/02 12:14:44;;;;;;;30.52;19.60;;;0.60;74.00;;;;;;5164296;28;20042;-80
2020/12/02 12:17:26;;;;;;;27.90;18.75;;;0.60;75.00;;;;;;5144316;28;20046;-80
2020/12/02 12:20:10;;;;;;;30.83;20.20;;;0.50;74.30;;;;;;5138113;28;20050;-80
2020/12/02 12:23:03;;;;;;;31.23;19.95;;;0.50;74.50;;;;;;5156309;28;20105;-81
2020/12/02 12:25:36;;;;;;;31.15;20.33;;;0.50;74.60;;;;;;5150865;28;20054;-82
2020/12/02 12:28:17;;;;;;;32.03;21.30;;;0.40;74.60;;;;;;5148348;28;20132;-81
2020/12/02 12:30:50;;;;;;;28.92;19.27;;;0.40;74.70;;;;;;5151984;28;20049;-81
2020/12/02 12:33:35;;;;;;;30.38;21.23;;;0.40;74.70;;;;;;5123378;28;20128;-81
2020/12/02 12:36:20;;;;;;;30.80;19.85;;;0.40;75.00;;;;;;5146849;28;20499;-83
2020/12/02 12:39:10;;;;;;;30.10;20.25;;;0.40;74.70;;;;;;5137480;28;20061;-84
2020/12/02 12:41:45;;;;;;;30.67;19.70;;;0.40;74.50;;;;;;5152360;28;20159;-81
2020/12/02 12:44:34;;;;;;;30.67;20.52;;;0.50;74.50;;;;;;5153354;28;20042;-82
2020/12/02 12:47:31;;;;;;;29.48;20.02;;;0.50;74.40;;;;;;5155327;28;20081;-81
2020/12/02 12:50:05;;;;;;;32.47;20.08;;;0.50;74.50;;;;;;5152091;28;20848;-77
2020/12/02 12:52:37;;;;;;;29.33;19.38;;;0.50;74.50;;;;;;5131351;28;20051;-77
2020/12/02 12:55:09;;;;;;;29.70;20.85;;;0.50;74.50;;;;;;5134795;28;20408;-76
2020/12/02 12:57:47;;;;;;;33.03;21.15;;;0.50;74.30;;;;;;5144932;28;20121;-78
2020/12/02 13:00:18;;;;;;;32.65;20.90;;;0.50;74.30;;;;;;5147035;28;20053;-76
2020/12/02 13:03:12;;;;;;;30.75;20.08;;;0.50;74.50;;;;;;5151293;28;20820;-75
2020/12/02 13:06:12;;;;;;;33.30;21.75;;;0.40;74.20;;;;;;5149866;28;20053;-75
2020/12/02 13:08:59;;;;;;;;;;;0.40;74.30;;;;;;5134766;28;20578;-76
2020/12/02 13:11:53;;;;;;;31.85;20.90;;;0.40;74.30;;;;;;5150503;28;19964;-77
2020/12/02 13:14:42;;;;;;;32.30;20.27;;;0.40;74.40;;;;;;5153898;28;20046;-79
2020/12/02 13:17:20;;;;;;;28.98;19.63;;;0.40;74.60;;;;;;5155173;28;20621;-78
2020/12/02 13:20:03;;;;;;;32.13;20.08;;;0.30;74.50;;;;;;5153178;28;20050;-77
2020/12/02 13:22:49;;;;;;;32.30;21.02;;;0.30;74.50;;;;;;5153081;28;20042;-78
2020/12/02 13:25:27;;;;;;;34.60;20.67;;;0.20;74.50;;;;;;5145175;28;20058;-77
2020/12/02 13:28:15;;;;;;;33.63;21.08;;;0.20;74.70;;;;;;5096914;28;20065;-76
2020/12/02 13:30:58;;;;;;;36.03;22.13;;;0.20;74.70;;;;;;5150560;28;20467;-76
2020/12/02 13:33:38;;;;;;;32.22;20.08;;;0.20;74.70;;;;;;5154146;28;20045;-77
2020/12/02 13:36:24;;;;;;;34.13;21.52;;;0.20;74.70;;;;;;5153196;28;20050;-78
2020/12/02 13:38:57;;;;;;;33.63;21.40;;;0.10;75.00;;;;;;5126605;28;20046;-75